Flight Track Log - Related Links

Times and Time Zones

All times are in EDT time to prevent confusion due to time zone crossing. See the A6-EGC flight status page for this flight to view local times or setup timezone preferences in your user account.

Time Position Orientation Groundspeed Altitude Reporting Facility
EDT Latitude Longitude Course Direction KTS MPH feet Rate Location/Type
Fri 04:29:07 PM 47.4820 8.5360 315° West 181 208 1,500  Level FlightAware ADS-B
Fri 04:29:32 PM 47.4970 8.5150 317° Northwest 181 208 2,700 2,945 Climbing FlightAware ADS-B
Fri 04:30:02 PM 47.5190 8.4980 332° Northwest 170 196 4,200 1,971 Climbing FlightAware ADS-B
Fri 04:30:42 PM 47.5480 8.5150 22° Northeast 203 234 5,000 1,636 Climbing FlightAware ADS-B
Fri 04:30:57 PM 47.5510 8.5330 76° East 203 234 5,700 3,000 Climbing FlightAware ADS-B
Fri 04:31:22 PM 47.5550 8.5690 81° East 203 234 7,000 2,800 Climbing FlightAware ADS-B
Fri 04:31:42 PM 47.5590 8.5960 78° East 204 235 7,800 2,533 Climbing FlightAware ADS-B
Fri 04:32:07 PM 47.5630 8.6310 80° East 208 239 8,900 2,073 Climbing FlightAware ADS-B
Fri 04:32:37 PM 47.5590 8.6720 98° East 232 267 9,700 1,714 Climbing FlightAware ADS-B
Fri 04:33:17 PM 47.5400 8.7400 112° Southeast 276 318 10,900 1,950 Climbing FlightAware ADS-B
Fri 04:33:57 PM 47.5230 8.8040 111° Southeast 297 342 12,300 1,835 Climbing FlightAware ADS-B
Fri 04:34:42 PM 47.4950 8.9040 112° Southeast 346 398 13,500 2,025 Climbing FlightAware ADS-B
Fri 04:35:17 PM 47.4730 8.9840 112° Southeast 358 412 15,000 2,541 Climbing FlightAware ADS-B
Fri 04:36:07 PM 47.4620 9.1090 97° East 381 438 17,100 2,400 Climbing FlightAware ADS-B
Fri 04:37:17 PM 47.4590 9.2970 91° East 403 464 19,800 2,267 Climbing FlightAware ADS-B
Fri 04:38:22 PM 47.4560 9.4760 91° East 420 483 22,200 1,800 Climbing FlightAware ADS-B
Fri 04:39:47 PM 47.4500 9.7320 92° East 461 531 24,300 1,523 Climbing FlightAware ADS-B
Fri 04:40:32 PM 47.4480 9.8640 91° East 473 544 25,500 1,765 Climbing FlightAware ADS-B
Fri 04:41:12 PM 47.4420 10.0000 94° East 480 552 26,800 1,725 Climbing FlightAware ADS-B
Fri 04:41:52 PM 47.4370 10.1280 93° East 489 563 27,800 1,482 Climbing FlightAware ADS-B
Fri 04:42:37 PM 47.4300 10.2720 94° East 498 573 28,900 1,553 Climbing FlightAware ADS-B
Fri 04:43:17 PM 47.4240 10.4270 93° East 506 582 30,000 2,018 Climbing FlightAware ADS-B
Fri 04:44:27 PM 47.4130 10.6610 94° East 490 564 32,600 1,500 Climbing FlightAware ADS-B
Fri 04:45:17 PM 47.4050 10.8320 94° East 491 565 33,000 253 Climbing FlightAware ADS-B
Fri 04:46:02 PM 47.3990 10.9690 94° East 492 566 33,000  Level FlightAware ADS-B
Fri 04:46:47 PM 47.3910 11.1170 95° East 494 568 33,000  Level FlightAware ADS-B
Fri 04:47:32 PM 47.3830 11.2780 94° East 498 573 33,000  Level FlightAware ADS-B
Fri 04:48:12 PM 47.3760 11.4120 94° East 498 573 33,000  Level FlightAware ADS-B
Fri 04:48:52 PM 47.3690 11.5450 94° East 497 572 33,000  Level FlightAware ADS-B
Fri 04:49:37 PM 47.3540 11.6950 98° East 492 566 33,000  Level FlightAware ADS-B
Fri 04:50:17 PM 47.3390 11.8310 99° East 492 566 33,000  Level FlightAware ADS-B
Fri 04:51:02 PM 47.3230 11.9790 99° East 495 570 33,000  Level FlightAware ADS-B
Fri 04:51:42 PM 47.3060 12.1120 101° East 496 571 33,000  Level FlightAware ADS-B
Fri 04:52:27 PM 47.2870 12.2600 101° East 494 568 33,000  Level FlightAware ADS-B
Fri 04:53:07 PM 47.2710 12.3910 100° East 496 571 33,000  Level FlightAware ADS-B
Fri 04:53:47 PM 47.2540 12.5260 100° East 495 570 33,000  Level FlightAware ADS-B
Fri 04:54:32 PM 47.2350 12.6740 101° East 493 567 33,000  Level FlightAware ADS-B
Fri 04:55:12 PM 47.2180 12.8090 100° East 490 564 33,000  Level FlightAware ADS-B
Fri 04:55:57 PM 47.1990 12.9550 101° East 491 565 33,000  Level FlightAware ADS-B
Fri 04:56:37 PM 47.1810 13.0850 101° East 494 568 33,000  Level FlightAware ADS-B
Fri 04:57:17 PM 47.1630 13.2170 101° East 495 570 33,000  Level FlightAware ADS-B
Fri 04:58:02 PM 47.1440 13.3600 101° East 496 571 33,000  Level FlightAware ADS-B
Fri 04:58:42 PM 47.1260 13.4910 101° East 494 568 33,000  Level FlightAware ADS-B
Fri 04:59:22 PM 47.1080 13.6280 101° East 493 567 33,000  Level FlightAware ADS-B
Fri 05:00:02 PM 47.0910 13.7490 102° East 496 571 33,000  Level FlightAware ADS-B
Fri 05:00:47 PM 47.0690 13.9040 102° East 496 571 33,000  Level FlightAware ADS-B
Fri 05:01:32 PM 47.0490 14.0450 102° East 495 570 33,000  Level FlightAware ADS-B
Fri 05:02:12 PM 47.0290 14.1860 102° East 495 570 33,000  Level FlightAware ADS-B
Fri 05:02:57 PM 47.0080 14.3290 102° East 493 567 33,000  Level FlightAware ADS-B
Fri 05:03:37 PM 46.9920 14.4430 102° East 493 567 33,000  Level FlightAware ADS-B
Fri 05:04:17 PM 46.9720 14.5750 102° East 495 570 33,000  Level FlightAware ADS-B
Fri 05:04:57 PM 46.9520 14.7110 102° East 496 571 33,000  Level FlightAware ADS-B
Fri 05:05:42 PM 46.9320 14.8490 102° East 495 570 33,000  Level FlightAware ADS-B
Fri 05:06:27 PM 46.9090 14.9960 103° East 495 570 33,000  Level FlightAware ADS-B
Fri 05:07:22 PM 46.8820 15.1750 102° East 494 568 33,000  Level FlightAware ADS-B
Fri 05:08:02 PM 46.8610 15.3110 103° East 494 568 33,000  Level FlightAware ADS-B
Fri 05:09:12 PM 46.8250 15.5420 103° East 492 566 33,000  Level FlightAware ADS-B
Fri 05:09:47 PM 46.8080 15.6540 102° East 491 565 33,000  Level FlightAware ADS-B
Fri 05:10:37 PM 46.7830 15.8110 103° East 492 566 33,000  Level FlightAware ADS-B
Fri 05:11:17 PM 46.7630 15.9360 103° East 493 567 33,000  Level FlightAware ADS-B
Fri 05:12:12 PM 46.7340 16.1180 103° East 494 568 33,000  Level FlightAware ADS-B
Fri 05:12:57 PM 46.7110 16.2570 104° East 495 570 33,000  Level FlightAware ADS-B
Fri 05:13:37 PM 46.6910 16.3760 104° East 495 570 33,000  Level FlightAware ADS-B
Fri 05:14:17 PM 46.6590 16.5110 109° East 496 571 33,000  Level FlightAware ADS-B
Fri 05:15:02 PM 46.6100 16.6790 113° Southeast 493 567 33,000  Level FlightAware ADS-B
Fri 05:15:42 PM 46.5790 16.7880 112° Southeast 494 568 33,000  Level FlightAware ADS-B
Fri 05:16:27 PM 46.5350 16.9380 113° Southeast 494 568 33,000  Level FlightAware ADS-B
Fri 05:17:12 PM 46.4970 17.0700 113° Southeast 493 567 33,000  Level FlightAware ADS-B
Fri 05:18:32 PM 46.4280 17.3020 113° Southeast 492 566 33,000  Level FlightAware ADS-B
Fri 05:19:12 PM 46.3910 17.4290 113° Southeast 493 567 33,000  Level FlightAware ADS-B
Fri 05:19:57 PM 46.3530 17.5560 113° Southeast 493 567 33,000  Level FlightAware ADS-B
Fri 05:20:42 PM 46.3110 17.6950 114° Southeast 491 565 33,000  Level FlightAware ADS-B
Fri 05:21:22 PM 46.2760 17.8130 113° Southeast 490 564 33,000  Level FlightAware ADS-B
Fri 05:22:02 PM 46.2400 17.9310 114° Southeast 490 564 33,000  Level FlightAware ADS-B
Fri 05:22:47 PM 46.2000 18.0620 114° Southeast 489 563 33,000  Level FlightAware ADS-B
Fri 05:23:27 PM 46.1610 18.1920 113° Southeast 488 562 33,000  Level FlightAware ADS-B
Fri 05:24:07 PM 46.1230 18.3140 114° Southeast 486 559 33,000  Level FlightAware ADS-B
Fri 05:24:47 PM 46.0880 18.4290 114° Southeast 486 559 33,000  Level FlightAware ADS-B
Fri 05:25:32 PM 46.0470 18.5620 114° Southeast 485 558 33,000  Level FlightAware ADS-B
Fri 05:28:00 PM 45.9300 18.9644 113° Southeast  Level Estimated
Fri 05:28:07 PM 45.8880 19.0080 113° Southeast 499 574 33,000  Level FlightAware ADS-B
Fri 05:28:52 PM 45.8210 19.1180 131° Southeast 496 571 33,000  Level FlightAware ADS-B
Fri 05:29:32 PM 45.7580 19.2180 132° Southeast 495 570 33,000  Level FlightAware ADS-B
Fri 05:30:02 PM 45.7170 19.2840 132° Southeast 496 571 33,000  Level FlightAware ADS-B
Fri 05:30:42 PM 45.6560 19.3810 132° Southeast 495 570 33,000  Level FlightAware ADS-B
Fri 05:31:22 PM 45.5890 19.4880 132° Southeast 491 565 33,000 224 Level FlightAware ADS-B
Fri 05:33:00 PM 45.5103 19.7516 113° Southeast  Level Estimated
Fri 05:34:00 PM 45.4618 19.9127 113° Southeast  Level Estimated
Fri 05:35:00 PM 45.4131 20.0734 113° Southeast  Level Estimated
Fri 05:36:00 PM 45.3642 20.2339 113° Southeast  Level Estimated
Fri 05:37:00 PM 45.3150 20.3941 114° Southeast  Level Estimated
Fri 05:38:00 PM 45.2656 20.5540 114° Southeast  Level Estimated
Fri 05:39:00 PM 45.2160 20.7137 114° Southeast  Level Estimated
Fri 05:39:37 PM 44.8260 20.7190 114° Southeast 501 577 35,000  Level FlightAware ADS-B
Fri 05:40:12 PM 44.7890 20.8120 119° Southeast 495 570 35,000  Level FlightAware ADS-B
Fri 05:40:47 PM 44.7500 20.9120 119° Southeast 487 560 35,000  Level FlightAware ADS-B
Fri 05:41:32 PM 44.7050 21.0300 118° Southeast 486 559 35,000  Level FlightAware ADS-B
Fri 05:42:22 PM 44.6540 21.1600 119° Southeast 487 560 35,000  Level FlightAware ADS-B
Fri 05:43:07 PM 44.5980 21.3040 119° Southeast 486 559 35,000  Level FlightAware ADS-B
Fri 05:43:42 PM 44.5610 21.3990 119° Southeast 486 559 35,000  Level FlightAware ADS-B
Fri 05:44:27 PM 44.5110 21.5260 119° Southeast 483 556 35,000  Level FlightAware ADS-B
Fri 05:45:02 PM 44.4740 21.6200 119° Southeast 484 557 35,000  Level FlightAware ADS-B
Fri 05:46:02 PM 44.4160 21.7670 119° Southeast 483 556 35,000  Level FlightAware ADS-B
Fri 05:46:42 PM 44.3700 21.8820 119° Southeast 482 555 35,000  Level FlightAware ADS-B
Fri 05:47:32 PM 44.3170 22.0150 119° Southeast 485 558 35,000  Level FlightAware ADS-B
Fri 05:48:12 PM 44.2680 22.1350 120° Southeast 481 554 35,000  Level FlightAware ADS-B
Fri 05:48:57 PM 44.2180 22.2600 119° Southeast 479 551 35,000  Level FlightAware ADS-B
Fri 05:49:37 PM 44.1750 22.3660 119° Southeast 480 552 35,000  Level FlightAware ADS-B
Fri 05:50:17 PM 44.1310 22.4740 120° Southeast 479 551 35,000  Level FlightAware ADS-B
Fri 05:51:02 PM 44.0830 22.5920 119° Southeast 478 550 35,000  Level FlightAware ADS-B
Fri 05:51:42 PM 44.0400 22.6980 119° Southeast 479 551 35,000  Level FlightAware ADS-B
Fri 05:52:27 PM 43.9890 22.8200 120° Southeast 478 550 35,000  Level FlightAware ADS-B
Fri 05:52:57 PM 43.9580 22.8960 120° Southeast 478 550 35,000  Level FlightAware ADS-B
Fri 05:53:57 PM 43.8980 23.0400 120° Southeast 482 555 35,000  Level FlightAware ADS-B
Fri 05:54:47 PM 43.8380 23.1840 120° Southeast 481 554 35,000  Level FlightAware ADS-B
Fri 05:55:27 PM 43.7950 23.2880 120° Southeast 484 557 35,000  Level FlightAware ADS-B
Fri 05:56:07 PM 43.7540 23.3850 120° Southeast 486 559 35,000  Level FlightAware ADS-B
Fri 05:56:42 PM 43.7130 23.4820 120° Southeast 486 559 35,000  Level FlightAware ADS-B
Fri 05:57:32 PM 43.6550 23.6190 120° Southeast 485 558 35,000  Level FlightAware ADS-B
Fri 05:58:17 PM 43.6050 23.7370 120° Southeast 487 560 35,000  Level FlightAware ADS-B
Fri 05:58:52 PM 43.5650 23.8300 121° Southeast 484 557 35,000  Level FlightAware ADS-B
Fri 05:59:52 PM 43.4960 23.9920 120° Southeast 485 558 35,000  Level FlightAware ADS-B
Fri 06:00:32 PM 43.4510 24.1020 119° Southeast 481 554 35,000  Level FlightAware ADS-B
Fri 06:01:07 PM 43.4210 24.2000 113° Southeast 477 549 35,000  Level FlightAware ADS-B
Fri 06:02:12 PM 43.3720 24.3840 110° East 479 551 35,000  Level FlightAware ADS-B
Fri 06:02:47 PM 43.3460 24.4800 110° East 482 555 35,000  Level FlightAware ADS-B
Fri 06:03:27 PM 43.3140 24.5970 111° Southeast 482 555 35,000  Level FlightAware ADS-B
Fri 06:04:17 PM 43.2750 24.7400 110° East 483 556 35,000  Level FlightAware ADS-B
Fri 06:04:57 PM 43.2430 24.8560 111° Southeast 484 557 35,000  Level FlightAware ADS-B
Fri 06:05:32 PM 43.2160 24.9540 111° Southeast 484 557 35,000  Level FlightAware ADS-B
Fri 06:06:22 PM 43.1760 25.0980 111° Southeast 484 557 35,000  Level FlightAware ADS-B
Fri 06:06:57 PM 43.1480 25.1990 111° Southeast 485 558 35,000  Level FlightAware ADS-B
Fri 06:07:47 PM 43.1090 25.3400 111° Southeast 484 557 35,000  Level FlightAware ADS-B
Fri 06:08:22 PM 43.0800 25.4420 111° Southeast 484 557 35,000  Level FlightAware ADS-B
Fri 06:09:12 PM 43.0420 25.5800 111° Southeast 484 557 35,000  Level FlightAware ADS-B
Fri 06:09:47 PM 43.0110 25.6860 112° Southeast 483 556 35,000  Level FlightAware ADS-B
Fri 06:10:37 PM 42.9730 25.8220 111° Southeast 482 555 35,000  Level FlightAware ADS-B
Fri 06:11:12 PM 42.9430 25.9270 111° Southeast 482 555 35,000  Level FlightAware ADS-B
Fri 06:11:57 PM 42.9080 26.0460 112° Southeast 481 554 35,000  Level FlightAware ADS-B
Fri 06:12:42 PM 42.8720 26.1730 111° Southeast 478 550 35,000  Level FlightAware ADS-B
Fri 06:13:22 PM 42.8380 26.2900 112° Southeast 477 549 35,000  Level FlightAware ADS-B
Fri 06:14:02 PM 42.8070 26.3950 112° Southeast 476 548 35,000  Level FlightAware ADS-B
Fri 06:14:47 PM 42.7690 26.5270 111° Southeast 475 547 35,000  Level FlightAware ADS-B
Fri 06:15:27 PM 42.7360 26.6400 112° Southeast 478 550 35,000  Level FlightAware ADS-B
Fri 06:16:02 PM 42.7080 26.7350 112° Southeast 478 550 35,000  Level FlightAware ADS-B
Fri 06:16:52 PM 42.6660 26.8760 112° Southeast 478 550 35,000  Level FlightAware ADS-B
Fri 06:17:42 PM 42.6280 27.0010 112° Southeast 478 550 35,000  Level FlightAware ADS-B
Fri 06:18:32 PM 42.5860 27.1430 112° Southeast 480 552 35,000  Level FlightAware ADS-B
Fri 06:19:12 PM 42.5530 27.2530 112° Southeast 482 555 35,000  Level FlightAware ADS-B
Fri 06:19:47 PM 42.5250 27.3440 113° Southeast 483 556 35,000  Level FlightAware ADS-B
Fri 06:20:52 PM 42.4660 27.5380 112° Southeast 482 555 35,000  Level FlightAware ADS-B
Fri 06:21:32 PM 42.4310 27.6530 112° Southeast 482 555 35,000  Level FlightAware ADS-B
Fri 06:22:07 PM 42.4010 27.7500 113° Southeast 482 555 35,000  Level FlightAware ADS-B
Fri 06:22:57 PM 42.3600 27.8820 113° Southeast 481 554 35,000  Level FlightAware ADS-B
Fri 06:23:32 PM 42.3280 27.9870 112° Southeast 482 555 35,000  Level FlightAware ADS-B
Fri 06:24:22 PM 42.2870 28.1170 113° Southeast 481 554 35,000  Level FlightAware ADS-B
Fri 06:25:02 PM 42.2510 28.2340 113° Southeast 482 555 35,000  Level FlightAware ADS-B
Fri 06:25:47 PM 42.2070 28.3740 113° Southeast 481 554 35,000  Level FlightAware ADS-B
Fri 06:26:32 PM 42.1690 28.4930 113° Southeast 479 551 35,000  Level FlightAware ADS-B
Fri 06:27:17 PM 42.1290 28.6200 113° Southeast 478 550 35,000  Level FlightAware ADS-B
Fri 06:28:12 PM 42.0830 28.7590 114° Southeast 475 547 35,000  Level FlightAware ADS-B
Fri 06:28:52 PM 42.0340 28.8700 121° Southeast 468 539 35,000  Level FlightAware ADS-B
Fri 06:29:42 PM 41.9750 28.9950 122° Southeast 474 545 35,000  Level FlightAware ADS-B
Fri 06:30:27 PM 41.9230 29.1060 122° Southeast 475 547 35,000  Level FlightAware ADS-B
Fri 06:31:02 PM 41.8810 29.1940 123° Southeast 470 541 35,000  Level FlightAware ADS-B
Fri 06:32:17 PM 41.7980 29.3680 123° Southeast 469 540 35,000  Level FlightAware ADS-B
Fri 06:33:42 PM 41.6970 29.5800 122° Southeast 474 545 35,000  Level FlightAware ADS-B
Fri 06:34:47 PM 41.6210 29.7380 123° Southeast 472 543 35,000  Level FlightAware ADS-B
Fri 06:35:57 PM 41.5370 29.9100 123° Southeast 471 542 35,000  Level FlightAware ADS-B
Fri 06:37:07 PM 41.4550 30.0800 123° Southeast 471 542 35,000  Level FlightAware ADS-B
Fri 06:38:32 PM 41.3540 30.2860 123° Southeast 473 544 35,000  Level FlightAware ADS-B
Fri 06:39:17 PM 41.3070 30.3810 123° Southeast 473 544 35,000  Level FlightAware ADS-B
Fri 06:39:57 PM 41.2510 30.4940 123° Southeast 473 544 35,000  Level FlightAware ADS-B
Fri 06:40:52 PM 41.1910 30.6160 123° Southeast 471 542 35,000  Level FlightAware ADS-B
Fri 06:41:37 PM 41.1410 30.7170 123° Southeast 471 542 35,000  Level FlightAware ADS-B
Fri 06:42:12 PM 41.0910 30.8150 124° Southeast 469 540 35,000  Level FlightAware ADS-B
Fri 06:43:17 PM 41.0150 30.9700 123° Southeast 469 540 35,000  Level FlightAware ADS-B
Fri 06:43:57 PM 40.9690 31.0600 124° Southeast 469 540 35,000  Level FlightAware ADS-B
Fri 06:44:42 PM 40.9090 31.1820 123° Southeast 466 536 35,000  Level FlightAware ADS-B
Fri 06:45:22 PM 40.8620 31.2760 123° Southeast 466 536 35,000  Level FlightAware ADS-B
Fri 06:46:07 PM 40.8130 31.3750 123° Southeast 466 536 35,000  Level FlightAware ADS-B
Fri 06:46:32 PM 40.7790 31.4410 124° Southeast 466 536 35,000  Level FlightAware ADS-B
Fri 06:47:17 PM 40.7270 31.5460 123° Southeast 466 536 35,000  Level FlightAware ADS-B
Fri 06:47:52 PM 40.6840 31.6320 123° Southeast 466 536 35,000  Level FlightAware ADS-B
Fri 06:48:42 PM 40.6240 31.7510 124° Southeast 465 535 35,000  Level FlightAware ADS-B
Fri 06:49:22 PM 40.5770 31.8440 124° Southeast 466 536 35,000  Level FlightAware ADS-B
Fri 06:50:02 PM 40.5300 31.9350 124° Southeast 466 536 35,000  Level FlightAware ADS-B
Fri 06:50:47 PM 40.4720 32.0450 125° Southeast 467 537 35,000  Level FlightAware ADS-B
Fri 06:51:22 PM 40.4310 32.1250 124° Southeast 469 540 35,000  Level FlightAware ADS-B
Fri 06:52:12 PM 40.3690 32.2440 124° Southeast 470 541 35,000  Level FlightAware ADS-B
Fri 06:52:52 PM 40.3210 32.3350 125° Southeast 470 541 35,000  Level FlightAware ADS-B
Fri 06:53:32 PM 40.2710 32.4310 124° Southeast 468 539 35,000  Level FlightAware ADS-B
Fri 06:54:17 PM 40.2160 32.5340 125° Southeast 467 537 35,000  Level FlightAware ADS-B
Fri 06:54:57 PM 40.1660 32.6290 125° Southeast 465 535 35,000  Level FlightAware ADS-B
Fri 06:55:42 PM 40.1120 32.7310 125° Southeast 463 533 35,000  Level FlightAware ADS-B
Fri 06:56:22 PM 40.0680 32.8250 121° Southeast 464 534 35,000  Level FlightAware ADS-B
Fri 06:57:02 PM 40.0340 32.9310 113° Southeast 465 535 35,000  Level FlightAware ADS-B
Fri 06:57:47 PM 40.0000 33.0490 111° Southeast 464 534 35,000  Level FlightAware ADS-B
Fri 06:58:27 PM 39.9700 33.1510 111° Southeast 463 533 35,000  Level FlightAware ADS-B
Fri 06:59:12 PM 39.9360 33.2630 112° Southeast 463 533 35,000  Level FlightAware ADS-B
Fri 06:59:52 PM 39.9030 33.3740 111° Southeast 463 533 35,000  Level FlightAware ADS-B
Fri 07:00:37 PM 39.8690 33.4870 111° Southeast 464 534 35,000  Level FlightAware ADS-B
Fri 07:01:17 PM 39.8370 33.5930 111° Southeast 463 533 35,000  Level FlightAware ADS-B
Fri 07:01:57 PM 39.8080 33.6990 110° East 463 533 35,000  Level FlightAware ADS-B
Fri 07:02:37 PM 39.7800 33.8050 109° East 464 534 35,000  Level FlightAware ADS-B
Fri 07:03:22 PM 39.7500 33.9220 108° East 463 533 35,000  Level FlightAware ADS-B
Fri 07:04:02 PM 39.7210 34.0270 110° East 464 534 35,000  Level FlightAware ADS-B
Fri 07:04:47 PM 39.6890 34.1440 110° East 466 536 35,000  Level FlightAware ADS-B
Fri 07:05:27 PM 39.6600 34.2520 109° East 468 539 35,000  Level FlightAware ADS-B
Fri 07:06:12 PM 39.6280 34.3690 110° East 465 535 35,000  Level FlightAware ADS-B
Fri 07:06:52 PM 39.5990 34.4750 110° East 465 535 35,000  Level FlightAware ADS-B
Fri 07:07:32 PM 39.5710 34.5750 110° East 465 535 35,000  Level FlightAware ADS-B
Fri 07:08:27 PM 39.5350 34.7100 109° East 465 535 35,000  Level FlightAware ADS-B
Fri 07:09:12 PM 39.4990 34.8360 110° East 465 535 35,000  Level FlightAware ADS-B
Fri 07:09:47 PM 39.4760 34.9200 110° East 466 536 35,000  Level FlightAware ADS-B
Fri 07:10:37 PM 39.4460 35.0320 109° East 466 536 35,000  Level FlightAware ADS-B
Fri 07:11:17 PM 39.4230 35.1220 108° East 466 536 35,000  Level FlightAware ADS-B
Fri 07:11:57 PM 39.3990 35.2120 109° East 466 536 35,000  Level FlightAware ADS-B
Fri 07:12:37 PM 39.3750 35.3010 109° East 466 536 35,000  Level FlightAware ADS-B
Fri 07:13:17 PM 39.3510 35.3910 109° East 466 536 35,000  Level FlightAware ADS-B
Fri 07:14:07 PM 39.3210 35.5030 109° East 466 536 35,000  Level FlightAware ADS-B
Fri 07:14:47 PM 39.2970 35.5930 109° East 466 536 35,000  Level FlightAware ADS-B
Fri 07:15:27 PM 39.2730 35.6820 109° East 466 536 35,000  Level FlightAware ADS-B
Fri 07:16:07 PM 39.2490 35.7720 109° East 466 536 35,000  Level FlightAware ADS-B
Fri 07:16:47 PM 39.2260 35.8610 108° East 466 536 35,000  Level FlightAware ADS-B
Fri 07:17:37 PM 39.1960 35.9730 109° East 466 536 35,000  Level FlightAware ADS-B
Fri 07:18:17 PM 39.1720 36.0620 109° East 466 536 35,000  Level FlightAware ADS-B
Fri 07:18:57 PM 39.1480 36.1520 109° East 466 536 35,000  Level FlightAware ADS-B
Fri 07:21:00 PM 39.0033 36.4175 125° Southeast  Level Estimated
Fri 07:22:00 PM 38.9324 36.5467 125° Southeast  Level Estimated
Fri 07:23:00 PM 38.8615 36.6756 125° Southeast  Level Estimated
Fri 07:24:00 PM 38.7904 36.8042 125° Southeast  Level Estimated
Fri 07:25:00 PM 38.7191 36.9325 125° Southeast  Level Estimated
Fri 07:26:00 PM 38.6477 37.0607 125° Southeast  Level Estimated
Fri 07:27:00 PM 38.5762 37.1885 126° Southeast  Level Estimated
Fri 07:28:00 PM 38.5046 37.3161 126° Southeast  Level Estimated
Fri 07:29:00 PM 38.4328 37.4435 126° Southeast  Level Estimated
Fri 07:30:00 PM 38.3608 37.5706 126° Southeast  Level Estimated
Fri 07:31:00 PM 38.2887 37.6974 126° Southeast  Level Estimated
Fri 07:32:00 PM 38.2165 37.8240 126° Southeast  Level Estimated
Fri 07:33:00 PM 38.1442 37.9503 126° Southeast  Level Estimated
Fri 07:34:00 PM 38.0717 38.0764 126° Southeast  Level Estimated
Fri 07:35:00 PM 37.9991 38.2023 126° Southeast  Level Estimated
Fri 07:36:00 PM 37.9263 38.3279 126° Southeast  Level Estimated
Fri 07:37:00 PM 37.8535 38.4532 126° Southeast  Level Estimated
Fri 07:38:00 PM 37.7804 38.5783 126° Southeast  Level Estimated
Fri 07:39:00 PM 37.7073 38.7031 126° Southeast  Level Estimated
Fri 07:40:00 PM 37.6340 38.8277 127° Southeast  Level Estimated
Fri 07:41:00 PM 37.5606 38.9521 127° Southeast  Level Estimated
Fri 07:42:00 PM 37.4870 39.0762 127° Southeast  Level Estimated
Fri 07:43:00 PM 37.4134 39.2001 127° Southeast  Level Estimated
Fri 07:44:00 PM 37.3396 39.3237 127° Southeast  Level Estimated
Fri 07:45:00 PM 37.2657 39.4470 127° Southeast  Level Estimated
Fri 07:46:00 PM 37.1916 39.5702 127° Southeast  Level Estimated
Fri 07:46:52 PM 37.5190 40.6640 127° Southeast 485 558 35,000  Level FlightAware ADS-B
Fri 07:47:32 PM 37.4610 40.7390 134° Southeast 485 558 35,000  Level FlightAware ADS-B
Fri 07:48:12 PM 37.4080 40.8080 134° Southeast 485 558 35,000  Level FlightAware ADS-B
Fri 07:49:12 PM 37.2960 40.9480 135° Southeast 490 564 35,000  Level FlightAware ADS-B
Fri 07:49:52 PM 37.2330 41.0280 135° Southeast 491 565 35,000  Level FlightAware ADS-B
Fri 07:50:37 PM 37.1620 41.1170 135° Southeast 492 566 35,000  Level FlightAware ADS-B
Fri 07:51:17 PM 37.0970 41.1980 135° Southeast 494 568 35,000  Level FlightAware ADS-B
Fri 07:51:57 PM 37.0260 41.2720 140° Southeast 492 566 35,000  Level FlightAware ADS-B
Fri 07:52:42 PM 36.9440 41.3460 144° Southeast 491 565 35,000  Level FlightAware ADS-B
Fri 07:53:22 PM 36.8710 41.4110 145° Southeast 489 563 35,000  Level FlightAware ADS-B
Fri 07:54:07 PM 36.7860 41.4870 144° Southeast 488 562 35,000  Level FlightAware ADS-B
Fri 07:54:47 PM 36.7120 41.5530 144° Southeast 488 562 35,000  Level FlightAware ADS-B
Fri 07:55:32 PM 36.6290 41.6270 144° Southeast 490 564 35,000  Level FlightAware ADS-B
Fri 07:56:12 PM 36.5600 41.6940 142° Southeast 494 568 35,000  Level FlightAware ADS-B
Fri 07:56:52 PM 36.4930 41.7740 136° Southeast 497 572 35,000  Level FlightAware ADS-B
Fri 07:57:37 PM 36.4200 41.8650 135° Southeast 498 573 35,000  Level FlightAware ADS-B
Fri 07:58:17 PM 36.3540 41.9470 135° Southeast 502 578 35,000  Level FlightAware ADS-B
Fri 07:59:02 PM 36.2820 42.0360 135° Southeast 503 579 35,000  Level FlightAware ADS-B
Fri 07:59:42 PM 36.2150 42.1180 135° Southeast 504 580 35,000  Level FlightAware ADS-B
Fri 08:00:27 PM 36.1390 42.2120 135° Southeast 504 580 35,000  Level FlightAware ADS-B
Fri 08:01:07 PM 36.0720 42.2940 135° Southeast 503 579 35,000  Level FlightAware ADS-B
Fri 08:01:47 PM 36.0070 42.3730 135° Southeast 502 578 35,000  Level FlightAware ADS-B
Fri 08:02:32 PM 35.9340 42.4630 135° Southeast 504 580 35,000  Level FlightAware ADS-B
Fri 08:03:12 PM 35.8670 42.5440 136° Southeast 507 583 35,000  Level FlightAware ADS-B
Fri 08:03:57 PM 35.7910 42.6360 136° Southeast 508 585 35,000  Level FlightAware ADS-B
Fri 08:04:37 PM 35.7240 42.7180 135° Southeast 510 587 35,000  Level FlightAware ADS-B
Fri 08:05:17 PM 35.6560 42.8000 136° Southeast 511 588 35,000  Level FlightAware ADS-B
Fri 08:06:02 PM 35.5800 42.8900 136° Southeast 510 587 35,000  Level FlightAware ADS-B
Fri 08:06:42 PM 35.5100 42.9680 138° Southeast 507 583 35,000  Level FlightAware ADS-B
Fri 08:07:27 PM 35.4310 43.0500 140° Southeast 503 579 35,000  Level FlightAware ADS-B
Fri 08:08:07 PM 35.3620 43.1210 140° Southeast 502 578 35,000  Level FlightAware ADS-B
Fri 08:08:47 PM 35.2890 43.1940 141° Southeast 500 575 35,000  Level FlightAware ADS-B
Fri 08:09:32 PM 35.2030 43.2700 144° Southeast 493 567 35,000  Level FlightAware ADS-B
Fri 08:10:12 PM 35.1270 43.3280 148° Southeast 491 565 35,000  Level FlightAware ADS-B
Fri 08:10:57 PM 35.0410 43.3930 148° Southeast 491 565 35,000  Level FlightAware ADS-B
Fri 08:11:37 PM 34.9650 43.4540 147° Southeast 498 573 35,000  Level FlightAware ADS-B
Fri 08:12:17 PM 34.8930 43.5240 141° Southeast 501 577 35,000  Level FlightAware ADS-B
Fri 08:13:02 PM 34.8090 43.6070 141° Southeast 504 580 35,000  Level FlightAware ADS-B
Fri 08:13:42 PM 34.7380 43.6800 140° Southeast 512 589 35,000  Level FlightAware ADS-B
Fri 08:14:22 PM 34.6700 43.7600 136° Southeast 516 594 35,000  Level FlightAware ADS-B
Fri 08:15:07 PM 34.5960 43.8530 134° Southeast 519 597 35,000  Level FlightAware ADS-B
Fri 08:15:47 PM 34.5310 43.9380 133° Southeast 524 603 35,000  Level FlightAware ADS-B
Fri 08:16:32 PM 34.4550 44.0410 132° Southeast 525 604 35,000  Level FlightAware ADS-B
Fri 08:17:12 PM 34.3860 44.1220 136° Southeast 518 596 35,000  Level FlightAware ADS-B
Fri 08:17:57 PM 34.3070 44.2030 140° Southeast 514 592 35,000  Level FlightAware ADS-B
Fri 08:18:37 PM 34.2370 44.2720 141° Southeast 515 593 35,000  Level FlightAware ADS-B
Fri 08:19:17 PM 34.1620 44.3450 141° Southeast 514 592 35,000  Level FlightAware ADS-B
Fri 08:20:02 PM 34.0760 44.4280 141° Southeast 515 593 35,000  Level FlightAware ADS-B
Fri 08:20:42 PM 34.0010 44.5010 141° Southeast 517 595 35,000  Level FlightAware ADS-B
Fri 08:21:27 PM 33.9190 44.5800 141° Southeast 517 595 35,000  Level FlightAware ADS-B
Fri 08:22:07 PM 33.8430 44.6530 141° Southeast 515 593 35,000  Level FlightAware ADS-B
Fri 08:22:52 PM 33.7610 44.7320 141° Southeast 515 593 35,000  Level FlightAware ADS-B
Fri 08:23:32 PM 33.6860 44.8030 142° Southeast 515 593 35,000  Level FlightAware ADS-B
Fri 08:24:12 PM 33.6070 44.8780 142° Southeast 514 592 35,000  Level FlightAware ADS-B
Fri 08:24:57 PM 33.5260 44.9550 142° Southeast 515 593 35,000  Level FlightAware ADS-B
Fri 08:25:37 PM 33.4480 45.0290 142° Southeast 516 594 35,000  Level FlightAware ADS-B
Fri 08:26:17 PM 33.3760 45.0980 141° Southeast 516 594 35,000  Level FlightAware ADS-B
Fri 08:27:02 PM 33.2950 45.1740 142° Southeast 516 594 35,000  Level FlightAware ADS-B
Fri 08:27:42 PM 33.2150 45.2490 142° Southeast 515 593 35,000  Level FlightAware ADS-B
Fri 08:28:22 PM 33.1410 45.3190 142° Southeast 514 592 35,000  Level FlightAware ADS-B
Fri 08:29:07 PM 33.0600 45.3950 142° Southeast 512 589 35,000  Level FlightAware ADS-B
Fri 08:29:47 PM 32.9840 45.4660 142° Southeast 512 589 35,000  Level FlightAware ADS-B
Fri 08:30:32 PM 32.8980 45.5460 142° Southeast 514 592 35,000  Level FlightAware ADS-B
Fri 08:31:12 PM 32.8330 45.6090 141° Southeast 514 592 35,000  Level FlightAware ADS-B
Fri 08:31:52 PM 32.7700 45.6690 141° Southeast 514 592 35,000  Level FlightAware ADS-B
Fri 08:32:32 PM 32.7070 45.7300 141° Southeast 514 592 35,000  Level FlightAware ADS-B
Fri 08:33:12 PM 32.6450 45.7900 141° Southeast 514 592 35,000  Level FlightAware ADS-B
Fri 08:34:02 PM 32.5660 45.8660 141° Southeast 514 592 35,000  Level FlightAware ADS-B
Fri 08:34:42 PM 32.5030 45.9260 141° Southeast 514 592 35,000  Level FlightAware ADS-B
Fri 08:35:22 PM 32.4400 45.9860 141° Southeast 514 592 35,000  Level FlightAware ADS-B
Fri 08:36:02 PM 32.3780 46.0470 140° Southeast 514 592 35,000  Level FlightAware ADS-B
Fri 08:36:42 PM 32.3150 46.1070 141° Southeast 514 592 35,000  Level FlightAware ADS-B
Fri 08:37:32 PM 32.2360 46.1820 141° Southeast 514 592 35,000  Level FlightAware ADS-B
Fri 08:38:12 PM 32.1730 46.2420 141° Southeast 514 592 35,000  Level FlightAware ADS-B
Fri 08:38:52 PM 32.1100 46.3020 141° Southeast 514 592 35,000  Level FlightAware ADS-B
Fri 08:39:32 PM 32.0480 46.3620 141° Southeast 514 592 35,000  Level FlightAware ADS-B
Fri 08:40:12 PM 31.9850 46.4220 141° Southeast 514 592 35,000  Level FlightAware ADS-B
Fri 08:42:00 PM 31.8475 46.6261 128° Southeast  Level Estimated
Fri 08:43:00 PM 31.7710 46.7392 128° Southeast  Level Estimated
Fri 08:44:00 PM 31.6943 46.8521 129° Southeast  Level Estimated
Fri 08:45:00 PM 31.6176 46.9649 129° Southeast  Level Estimated
Fri 08:46:00 PM 31.5408 47.0774 129° Southeast  Level Estimated
Fri 08:47:00 PM 31.4639 47.1898 129° Southeast  Level Estimated
Fri 08:48:00 PM 31.3868 47.3020 129° Southeast  Level Estimated
Fri 08:48:12 PM 30.9040 47.4320 129° Southeast 540 621 35,000  Level FlightAware ADS-B
Fri 08:48:57 PM 30.8260 47.5140 138° Southeast 543 625 35,000  Level FlightAware ADS-B
Fri 08:49:52 PM 30.7230 47.6210 138° Southeast 543 625 35,000  Level FlightAware ADS-B
Fri 08:50:32 PM 30.6460 47.7020 138° Southeast 545 627 35,000  Level FlightAware ADS-B
Fri 08:51:17 PM 30.5620 47.7890 138° Southeast 546 628 35,000  Level FlightAware ADS-B
Fri 08:51:57 PM 30.4900 47.8590 140° Southeast 539 620 35,000  Level FlightAware ADS-B
Fri 08:52:47 PM 30.3830 47.9490 144° Southeast 538 619 35,000  Level FlightAware ADS-B
Fri 08:53:37 PM 30.2960 48.0260 143° Southeast 539 620 35,000  Level FlightAware ADS-B
Fri 08:54:17 PM 30.2080 48.1010 144° Southeast 541 623 35,000  Level FlightAware ADS-B
Fri 08:55:02 PM 30.1200 48.1790 143° Southeast 541 623 35,000  Level FlightAware ADS-B
Fri 08:55:42 PM 30.0460 48.2450 142° Southeast 541 623 35,000  Level FlightAware ADS-B
Fri 08:56:22 PM 29.9580 48.3200 144° Southeast 540 621 35,000  Level FlightAware ADS-B
Fri 08:57:47 PM 29.7890 48.4670 143° Southeast 540 621 35,000  Level FlightAware ADS-B
Fri 08:58:32 PM 29.6970 48.5450 144° Southeast 539 620 35,000  Level FlightAware ADS-B
Fri 08:59:02 PM 29.6300 48.6010 144° Southeast 540 621 35,000  Level FlightAware ADS-B
Fri 08:59:52 PM 29.5360 48.6810 143° Southeast 538 619 35,000  Level FlightAware ADS-B
Fri 09:00:37 PM 29.4400 48.7620 144° Southeast 535 616 35,000  Level FlightAware ADS-B
Fri 09:01:17 PM 29.3680 48.8220 144° Southeast 535 616 35,000  Level FlightAware ADS-B
Fri 09:01:57 PM 29.2930 48.8850 144° Southeast 536 617 35,000  Level FlightAware ADS-B
Fri 09:02:32 PM 29.2200 48.9460 144° Southeast 538 619 35,000  Level FlightAware ADS-B
Fri 09:03:17 PM 29.1430 49.0130 143° Southeast 538 619 35,000  Level FlightAware ADS-B
Fri 09:04:07 PM 29.0260 49.1090 144° Southeast 534 615 35,000  Level FlightAware ADS-B
Fri 09:04:42 PM 28.9580 49.1670 143° Southeast 533 613 35,000  Level FlightAware ADS-B
Fri 09:05:22 PM 28.8910 49.2240 143° Southeast 533 613 35,000  Level FlightAware ADS-B
Fri 09:06:02 PM 28.8000 49.2960 145° Southeast 531 611 35,000  Level FlightAware ADS-B
Fri 09:06:42 PM 28.7280 49.3560 144° Southeast 531 611 35,000  Level FlightAware ADS-B
Fri 09:07:37 PM 28.6070 49.4570 144° Southeast 532 612 35,000  Level FlightAware ADS-B
Fri 09:08:17 PM 28.5400 49.5150 143° Southeast 532 612 35,000  Level FlightAware ADS-B
Fri 09:08:47 PM 28.4900 49.5580 143° Southeast 532 612 35,000  Level FlightAware ADS-B
Fri 09:09:27 PM 28.4230 49.6150 143° Southeast 532 612 35,000  Level FlightAware ADS-B
Fri 09:10:17 PM 28.3400 49.6870 143° Southeast 532 612 35,000  Level FlightAware ADS-B
Fri 09:10:57 PM 28.2730 49.7440 143° Southeast 532 612 35,000  Level FlightAware ADS-B
Fri 09:11:37 PM 28.2060 49.8010 143° Southeast 532 612 35,000  Level FlightAware ADS-B
Fri 09:12:17 PM 28.1390 49.8580 143° Southeast 532 612 35,000  Level FlightAware ADS-B
Fri 09:12:57 PM 28.0720 49.9150 143° Southeast 532 612 35,000  Level FlightAware ADS-B
Fri 09:13:37 PM 28.0060 49.9720 143° Southeast 532 612 35,000  Level FlightAware ADS-B
Fri 09:14:27 PM 27.9220 50.0440 143° Southeast 532 612 35,000  Level FlightAware ADS-B
Fri 09:15:07 PM 27.8550 50.1010 143° Southeast 532 612 35,000  Level FlightAware ADS-B
Fri 09:15:57 PM 27.7720 50.1720 143° Southeast 532 612 35,000  Level FlightAware ADS-B
Fri 09:16:37 PM 27.7050 50.2290 143° Southeast 532 612 35,000  Level FlightAware ADS-B
Fri 09:19:00 PM 27.5722 50.5236 117° Southeast  Level Estimated
Fri 09:19:52 PM 27.1030 50.6780 117° Southeast 537 618 35,000  Level FlightAware ADS-B
Fri 09:20:37 PM 27.0200 50.7450 144° Southeast 537 618 35,000  Level FlightAware ADS-B
Fri 09:21:02 PM 26.9740 50.8020 132° Southeast 553 636 35,000  Level FlightAware ADS-B
Fri 09:21:47 PM 26.9200 50.9280 116° Southeast 571 657 35,000  Level FlightAware ADS-B
Fri 09:22:27 PM 26.8840 51.0260 112° Southeast 571 657 35,000  Level FlightAware ADS-B
Fri 09:23:02 PM 26.8500 51.1180 112° Southeast 574 661 35,000  Level FlightAware ADS-B
Fri 09:23:52 PM 26.7920 51.2710 113° Southeast 576 663 35,000  Level FlightAware ADS-B
Fri 09:24:32 PM 26.7470 51.3770 115° Southeast 571 657 35,000  Level FlightAware ADS-B
Fri 09:25:17 PM 26.6950 51.5000 115° Southeast 572 658 35,000  Level FlightAware ADS-B
Fri 09:25:57 PM 26.6500 51.6050 116° Southeast 577 664 35,000  Level FlightAware ADS-B
Fri 09:26:37 PM 26.6030 51.7180 115° Southeast 577 664 35,000  Level FlightAware ADS-B
Fri 09:27:22 PM 26.5530 51.8360 115° Southeast 578 665 35,000  Level FlightAware ADS-B
Fri 09:28:02 PM 26.5060 51.9460 116° Southeast 577 664 35,000  Level FlightAware ADS-B
Fri 09:28:47 PM 26.4550 52.0680 115° Southeast 576 663 35,000  Level FlightAware ADS-B
Fri 09:29:27 PM 26.4110 52.1730 115° Southeast 577 664 35,000  Level FlightAware ADS-B
Fri 09:30:07 PM 26.3640 52.2810 116° Southeast 574 661 35,000  Level FlightAware ADS-B
Fri 09:30:52 PM 26.3180 52.3900 115° Southeast 575 662 35,000  Level FlightAware ADS-B
Fri 09:31:47 PM 26.2500 52.5480 116° Southeast 575 662 35,000 -695 Level FlightAware ADS-B
Fri 09:32:27 PM 26.2010 52.6620 116° Southeast 579 666 33,900 -1,906 Descending FlightAware ADS-B
Fri 09:33:12 PM 26.1500 52.7800 116° Southeast 567 652 32,300 -1,976 Descending FlightAware ADS-B
Fri 09:33:52 PM 26.1040 52.8870 116° Southeast 556 640 31,100 -1,840 Descending FlightAware ADS-B
Fri 09:34:27 PM 26.0650 52.9760 116° Southeast 542 624 30,000 -1,829 Descending FlightAware ADS-B
Fri 09:35:37 PM 25.9920 53.1450 116° Southeast 525 604 27,900 -1,614 Descending FlightAware ADS-B
Fri 09:36:52 PM 25.9150 53.3230 116° Southeast 492 566 26,100 -1,160 Descending FlightAware ADS-B
Fri 09:38:07 PM 25.8570 53.4910 111° Southeast 488 562 25,000 -1,096 Descending FlightAware ADS-B
Fri 09:38:47 PM 25.8280 53.5900 108° East 450 518 24,000 -632 Descending FlightAware ADS-B
Fri 09:39:42 PM 25.7980 53.6940 108° East 429 494 24,000 -571 Level FlightAware ADS-B
Fri 09:40:32 PM 25.7640 53.8030 109° East 408 470 23,000 -571 Descending FlightAware ADS-B
Fri 09:41:27 PM 25.7330 53.9050 109° East 410 472 23,000  Level FlightAware ADS-B
Fri 09:42:27 PM 25.6970 54.0250 108° East 411 473 23,000 -57 Level FlightAware ADS-B
Fri 09:43:12 PM 25.6680 54.1160 109° East 411 473 22,900 -75 Descending FlightAware ADS-B
Fri 09:43:47 PM 25.6510 54.1750 108° East 411 473 22,900 -1,360 Level FlightAware ADS-B
Fri 09:44:27 PM 25.6230 54.2650 109° East 396 456 21,200 -769 Descending FlightAware ADS-B
Fri 09:47:00 PM 25.5149 54.5910 110° East  Level Estimated
Fri 09:47:02 PM 25.6060 54.5760 110° East 385 443 20,400  Level FlightAware ADS-B
Fri 09:49:00 PM 25.4996 54.8165 116° Southeast  Level Estimated
Fri 09:50:00 PM 25.4453 54.9386 116° Southeast  Level Estimated
Fri 09:51:00 PM 25.3910 55.0606 116° Southeast  Level Estimated
Fri 09:52:00 PM 25.3365 55.1825 116° Southeast  Level Estimated
Fri 09:53:00 PM 25.2819 55.3042 116° Southeast  Level Estimated
Fri 09:54:00 PM 25.2550 55.3643 116° Southeast  Level Estimated
Fri 09:54:22 PM 25.6790 54.4990 211° Southwest 287 330 16,000  Level FlightAware ADS-B
Fri 09:54:57 PM 25.6640 54.4610 246° West 287 330 15,200 -1,500 Descending FlightAware ADS-B
Fri 09:55:00 PM 25.2550 55.3643 211° Southwest  Level Estimated
Fri 09:55:42 PM 25.7060 54.4280 325° Northwest 278 320 14,000  Level FlightAware ADS-B
Fri 09:56:32 PM 25.7530 54.4810 45° Northeast 319 367 12,800 -485 Descending FlightAware ADS-B
Fri 09:59:00 PM 25.5930 54.7666 122° Southeast  Level Estimated
Fri 10:00:00 PM 25.5280 54.8822 122° Southeast  Level Estimated
Fri 10:01:00 PM 25.4629 54.9976 122° Southeast  Level Estimated
Fri 10:02:00 PM 25.3977 55.1129 122° Southeast  Level Estimated
Fri 10:03:00 PM 25.3324 55.2281 122° Southeast  Level Estimated
Fri 10:04:00 PM 25.2674 55.3425 122° Southeast  Level Estimated
Fri 10:05:00 PM 25.2550 55.3643 122° Southeast  Level Estimated
Fri 10:06:00 PM 25.2550 55.3643 211° Southwest  Level Estimated
Fri 10:07:00 PM 25.2550 55.3643 211° Southwest  Level Estimated
Fri 10:07:27 PM 25.3580 55.3230 211° Southwest 285 328 8,300  Level FlightAware ADS-B
Fri 10:07:52 PM 25.3420 55.3510 122° Southeast 283 326 8,300 -360 Level FlightAware ADS-B
Fri 10:08:17 PM 25.3250 55.3820 121° Southeast 276 318 8,000 -720 Descending FlightAware ADS-B
Fri 10:08:42 PM 25.3080 55.4120 122° Southeast 264 304 7,700 -923 Descending FlightAware ADS-B
Fri 10:09:22 PM 25.2800 55.4520 128° Southeast 253 291 7,000 -982 Descending FlightAware ADS-B
Fri 10:09:37 PM 25.2630 55.4560 168° South 243 280 6,800 -750 Descending FlightAware ADS-B
Fri 10:10:02 PM 25.2400 55.4410 211° Southwest 227 261 6,500 -600 Descending FlightAware ADS-B
Fri 10:10:17 PM 25.2300 55.4250 235° Southwest 225 259 6,400 -343 Descending FlightAware ADS-B
Fri 10:10:37 PM 25.2210 55.4090 238° Southwest 225 259 6,300 -150 Descending FlightAware ADS-B
Fri 10:10:57 PM 25.2130 55.3940 239° Southwest 224 258 6,300  Level FlightAware ADS-B
Fri 10:11:17 PM 25.1920 55.3610 235° Southwest 226 260 6,300  Level FlightAware ADS-B
Fri 10:11:37 PM 25.1670 55.3540 194° South 245 282 6,300  Level FlightAware ADS-B
Fri 10:12:07 PM 25.1420 55.3730 145° Southeast 247 284 6,300  Level FlightAware ADS-B
Fri 10:12:32 PM 25.1260 55.4020 121° Southeast 254 292 6,300  Level FlightAware ADS-B
Fri 10:13:12 PM 25.1050 55.4420 120° Southeast 254 292 6,300 -86 Level FlightAware ADS-B
Fri 10:13:42 PM 25.0850 55.4770 122° Southeast 252 290 6,200 -109 Descending FlightAware ADS-B
Fri 10:14:07 PM 25.0720 55.5020 120° Southeast 252 290 6,200 -600 Level FlightAware ADS-B
Fri 10:14:32 PM 25.0570 55.5300 121° Southeast 252 290 5,700 -545 Descending FlightAware ADS-B
Fri 10:17:00 PM 25.2550 55.3643 323° Northwest  Level Estimated
Fri 10:18:00 PM 25.2550 55.3643 211° Southwest  Level Estimated
Fri 10:19:00 PM 25.2550 55.3643 211° Southwest  Level Estimated
Fri 10:20:00 PM 25.2550 55.3643 211° Southwest  Level Estimated
Fri 10:21:00 PM 25.2550 55.3643 211° Southwest  Level Estimated
Fri 10:22:00 PM 25.2550 55.3643 211° Southwest  Level Estimated
Fri 10:23:00 PM 25.2550 55.3643 211° Southwest  Level Estimated
Fri 10:23:32 PM 25.2130 55.4360 211° Southwest 1,200  Level FlightAware ADS-B
Fri 10:24:02 PM 25.2250 55.4140 301° West 158 182 800 -982 Descending FlightAware ADS-B
Fri 10:24:27 PM 25.2370 55.3940 304° West 162 186 300 -1,200 Descending FlightAware ADS-B

Login

Don't have an account? Register now (free) for customized features, flight alerts, and more!